Time;durP1;ratioP1;P1;durP2;ratioP2;P2;SDS_P1;SDS_P2;PMS_P1;PMS_P2;Temp;Humidity;BMP_temperature;BMP_pressure;BME280_temperature;BME280_humidity;BME280_pressure;Samples;Min_cycle;Max_cycle;Signal;HPM_P1;HPM_P2
2021/01/03 00:02:03;;;;;;;9.60;5.20;;;2.80;99.90;;;;;;5021056;28;20174;-93
2021/01/03 00:04:30;;;;;;;7.97;5.53;;;2.90;99.90;;;;;;5020822;28;20198;-94
2021/01/03 00:06:56;;;;;;;6.97;5.17;;;2.80;99.90;;;;;;5021328;28;20164;-94
2021/01/03 00:09:23;;;;;;;8.20;4.87;;;2.80;99.90;;;;;;5021551;28;20169;-95
2021/01/03 00:11:50;;;;;;;12.47;6.77;;;2.90;99.90;;;;;;5021353;28;20175;-93
2021/01/03 00:14:17;;;;;;;11.23;7.07;;;2.90;99.90;;;;;;5020907;28;20204;-93
2021/01/03 00:16:47;;;;;;;8.33;4.90;;;2.90;99.90;;;;;;5020443;28;20203;-93
2021/01/03 00:19:13;;;;;;;6.70;4.47;;;2.90;99.90;;;;;;5021034;28;20180;-93
2021/01/03 00:21:41;;;;;;;7.27;4.07;;;2.90;99.90;;;;;;5020461;28;20281;-94
2021/01/03 00:24:07;;;;;;;6.67;3.90;;;2.90;99.90;;;;;;5020519;28;20282;-92
2021/01/03 00:26:33;;;;;;;6.30;4.40;;;3.00;99.90;;;;;;5020589;28;20170;-92
2021/01/03 00:28:59;;;;;;;6.03;3.57;;;2.90;99.90;;;;;;5020513;28;20222;-93
2021/01/03 00:31:25;;;;;;;5.30;3.57;;;3.00;99.90;;;;;;5020582;28;20167;-92
2021/01/03 00:33:53;;;;;;;4.53;3.10;;;3.10;99.90;;;;;;5021006;28;20235;-93
2021/01/03 00:36:20;;;;;;;6.73;4.50;;;3.00;99.90;;;;;;5020319;28;20299;-91
2021/01/03 00:38:46;;;;;;;5.10;3.77;;;3.10;99.90;;;;;;5019915;28;20166;-92
2021/01/03 00:41:12;;;;;;;5.47;3.40;;;3.10;99.90;;;;;;5020103;28;20171;-92
2021/01/03 00:43:38;;;;;;;5.53;3.40;;;3.00;99.90;;;;;;5019993;28;20241;-94
2021/01/03 00:46:04;;;;;;;6.03;3.50;;;3.00;99.90;;;;;;5020221;28;20170;-93
2021/01/03 00:48:30;;;;;;;5.67;3.57;;;3.10;99.90;;;;;;5020225;28;20554;-95
2021/01/03 00:50:56;;;;;;;6.33;3.97;;;3.00;99.90;;;;;;5019892;28;20183;-93
2021/01/03 00:53:22;;;;;;;5.87;3.87;;;3.00;99.90;;;;;;5019748;28;20210;-93
2021/01/03 00:55:49;;;;;;;5.63;3.80;;;3.00;99.90;;;;;;5020249;28;20182;-93
2021/01/03 00:58:15;;;;;;;6.37;3.80;;;3.10;99.90;;;;;;5019649;28;20175;-92
2021/01/03 01:00:41;;;;;;;5.97;3.80;;;3.00;99.90;;;;;;5003836;28;20644;-95
2021/01/03 01:03:08;;;;;;;5.57;3.23;;;3.00;99.90;;;;;;5003210;28;20216;-93
2021/01/03 01:05:34;;;;;;;5.10;3.47;;;3.00;99.90;;;;;;5003579;28;20177;-91
2021/01/03 01:08:00;;;;;;;5.50;3.77;;;3.00;99.90;;;;;;5003009;28;20183;-93
2021/01/03 01:10:28;;;;;;;5.83;4.27;;;3.00;99.90;;;;;;5003992;28;20186;-93
2021/01/03 01:12:57;;;;;;;7.70;4.43;;;3.00;99.90;;;;;;5003554;28;20206;-93
2021/01/03 01:15:25;;;;;;;6.03;3.40;;;3.00;99.90;;;;;;5003424;28;20242;-92
2021/01/03 01:17:57;;;;;;;6.57;3.87;;;3.10;99.90;;;;;;5003415;28;20242;-93
2021/01/03 01:20:26;;;;;;;6.37;3.57;;;3.00;99.90;;;;;;5003548;28;20186;-92
2021/01/03 01:22:55;;;;;;;5.73;3.57;;;3.00;99.90;;;;;;5003367;28;20215;-94
2021/01/03 01:25:28;;;;;;;6.27;3.90;;;3.10;99.90;;;;;;4995578;28;20262;-94
2021/01/03 01:27:56;;;;;;;5.47;3.83;;;3.00;99.90;;;;;;5003555;28;20175;-93
2021/01/03 01:30:24;;;;;;;6.43;4.30;;;3.00;99.90;;;;;;5003073;28;20171;-94
2021/01/03 01:32:51;;;;;;;6.00;4.30;;;3.00;99.90;;;;;;5003331;28;20213;-93
2021/01/03 01:35:21;;;;;;;6.00;3.90;;;3.00;99.90;;;;;;5003808;28;20183;-94
2021/01/03 01:37:48;;;;;;;5.70;3.97;;;3.00;99.90;;;;;;5003163;28;20190;-92
2021/01/03 01:40:19;;;;;;;7.17;4.23;;;3.00;99.90;;;;;;5003102;28;20655;-92
2021/01/03 01:42:46;;;;;;;5.77;4.00;;;3.00;99.90;;;;;;5003446;28;20218;-93
2021/01/03 01:45:14;;;;;;;7.37;4.50;;;3.00;99.90;;;;;;5002862;28;20635;-93
2021/01/03 01:47:46;;;;;;;7.17;4.23;;;3.00;99.90;;;;;;5003341;28;20247;-93
2021/01/03 01:50:30;;;;;;;8.70;4.97;;;3.00;99.90;;;;;;5003788;28;20242;-93
2021/01/03 01:52:59;;;;;;;7.30;4.80;;;3.00;99.90;;;;;;5007598;28;20224;-93
2021/01/03 01:55:34;;;;;;;7.63;5.10;;;3.00;99.90;;;;;;5007172;28;20208;-94
2021/01/03 01:58:20;;;;;;;8.17;5.33;;;3.10;99.90;;;;;;5006256;28;20206;-94
2021/01/03 02:00:57;;;;;;;9.37;5.30;;;3.10;99.90;;;;;;5006696;28;20182;-94
2021/01/03 02:03:25;;;;;;;9.10;5.73;;;3.10;99.90;;;;;;5006168;28;20658;-93
2021/01/03 02:06:05;;;;;;;9.43;5.43;;;3.10;99.90;;;;;;5006773;28;20185;-93
2021/01/03 02:08:39;;;;;;;10.53;6.10;;;3.00;99.90;;;;;;5006556;28;20177;-93
2021/01/03 02:11:12;;;;;;;10.33;6.33;;;3.00;99.90;;;;;;5006343;28;20171;-93
2021/01/03 02:16:23;;;;;;;10.37;6.17;;;3.00;99.90;;;;;;5312295;22;20625;-93
2021/01/03 02:18:50;;;;;;;11.33;6.10;;;3.00;99.90;;;;;;5020263;28;20173;-94
2021/01/03 02:21:45;;;;;;;8.47;6.17;;;3.00;99.90;;;;;;5019996;28;20175;-92
2021/01/03 02:24:35;;;;;;;12.00;6.80;;;2.90;99.90;;;;;;5004908;28;20215;-92
2021/01/03 02:27:10;;;;;;;10.20;6.03;;;3.00;99.90;;;;;;5000296;28;20173;-93
2021/01/03 02:29:38;;;;;;;13.00;7.07;;;2.90;99.90;;;;;;5000309;28;20182;-94
2021/01/03 02:32:06;;;;;;;10.30;6.60;;;2.90;99.90;;;;;;5000448;28;20172;-94
2021/01/03 02:34:40;;;;;;;13.00;7.27;;;2.90;99.90;;;;;;5000285;28;20202;-94
2021/01/03 02:37:16;;;;;;;14.40;7.50;;;3.00;99.90;;;;;;5000422;28;20291;-93
2021/01/03 02:40:02;;;;;;;10.93;6.70;;;2.90;99.90;;;;;;5000161;28;20265;-92
2021/01/03 02:42:37;;;;;;;11.53;7.13;;;2.90;99.90;;;;;;4999989;28;20194;-93
2021/01/03 02:45:34;;;;;;;10.83;6.93;;;2.90;99.90;;;;;;5000337;28;20177;-93
2021/01/03 02:48:08;;;;;;;12.97;6.77;;;2.90;99.90;;;;;;4998305;28;20190;-93
2021/01/03 02:50:34;;;;;;;10.63;6.57;;;2.90;99.90;;;;;;4999861;28;20705;-93
2021/01/03 02:53:00;;;;;;;10.17;7.00;;;2.90;99.90;;;;;;4999745;28;20232;-94
2021/01/03 02:55:26;;;;;;;11.70;7.40;;;2.90;99.90;;;;;;4999694;28;20210;-93
2021/01/03 02:57:51;;;;;;;14.83;7.13;;;2.90;99.90;;;;;;4999849;28;20178;-93
2021/01/03 03:00:24;;;;;;;11.80;6.80;;;2.90;99.90;;;;;;4999766;28;20175;-92
2021/01/03 03:02:50;;;;;;;11.77;7.37;;;2.90;99.90;;;;;;4998890;28;20217;-93
2021/01/03 03:05:17;;;;;;;13.73;7.60;;;2.90;99.90;;;;;;4999660;28;20176;-93
2021/01/03 03:07:43;;;;;;;11.43;7.37;;;2.90;99.90;;;;;;4999512;28;20213;-93
2021/01/03 03:10:09;;;;;;;12.53;8.00;;;2.90;99.90;;;;;;4999650;28;20206;-94
2021/01/03 03:12:35;;;;;;;10.87;7.20;;;2.90;99.90;;;;;;4999552;28;20519;-94
2021/01/03 03:15:07;;;;;;;12.87;7.83;;;2.90;99.90;;;;;;5000062;28;20313;-92
2021/01/03 03:17:32;;;;;;;12.47;7.57;;;2.90;99.90;;;;;;5032349;28;20182;-92
2021/01/03 03:19:59;;;;;;;12.20;7.63;;;2.90;99.90;;;;;;5032256;28;20634;-93
2021/01/03 03:22:25;;;;;;;14.50;8.43;;;2.90;99.90;;;;;;5032272;28;20539;-92
2021/01/03 03:24:50;;;;;;;13.97;8.60;;;2.90;99.90;;;;;;5032268;28;20178;-93
2021/01/03 03:27:16;;;;;;;13.33;8.30;;;2.90;99.90;;;;;;5032311;28;20627;-91
2021/01/03 03:29:42;;;;;;;14.57;8.63;;;2.90;99.90;;;;;;5031923;28;20192;-94
2021/01/03 03:32:08;;;;;;;15.90;8.97;;;2.90;99.90;;;;;;5032078;28;20206;-93
2021/01/03 03:34:33;;;;;;;15.97;8.10;;;2.90;99.90;;;;;;5031929;28;20204;-93
2021/01/03 03:36:59;;;;;;;13.07;8.43;;;2.90;99.90;;;;;;5031854;28;20171;-93
2021/01/03 03:39:26;;;;;;;15.43;8.73;;;2.90;99.90;;;;;;5031987;28;20175;-93
2021/01/03 03:42:00;;;;;;;14.13;8.93;;;2.90;99.90;;;;;;5031859;28;20217;-93
2021/01/03 03:44:27;;;;;;;12.90;8.10;;;2.90;99.90;;;;;;5031584;28;20272;-93
2021/01/03 03:47:03;;;;;;;15.60;8.20;;;2.90;99.90;;;;;;5031750;28;20206;-93
2021/01/03 03:49:31;;;;;;;12.37;7.77;;;2.80;99.90;;;;;;5031733;28;20165;-93
2021/01/03 03:51:58;;;;;;;14.83;8.87;;;2.80;99.90;;;;;;5031602;28;20171;-93
2021/01/03 03:54:24;;;;;;;15.10;8.40;;;2.80;99.90;;;;;;5031697;28;20225;-93
2021/01/03 03:56:55;;;;;;;15.20;8.70;;;2.80;99.90;;;;;;5031535;28;20179;-92
2021/01/03 03:59:21;;;;;;;15.47;9.17;;;2.80;99.90;;;;;;5031496;28;20172;-93
2021/01/03 04:01:48;;;;;;;15.23;9.17;;;2.80;99.90;;;;;;5031616;28;20181;-92
2021/01/03 04:04:14;;;;;;;17.83;9.23;;;2.80;99.90;;;;;;5031177;28;20218;-94
2021/01/03 04:06:40;;;;;;;15.17;9.20;;;2.80;99.90;;;;;;5031221;28;20179;-92
2021/01/03 04:09:06;;;;;;;18.23;10.03;;;2.80;99.90;;;;;;5031506;28;20172;-93
2021/01/03 04:11:32;;;;;;;18.07;10.47;;;2.80;99.90;;;;;;5014948;28;20171;-92
2021/01/03 04:13:58;;;;;;;18.27;10.57;;;2.80;99.90;;;;;;5014024;28;20265;-93
2021/01/03 04:16:24;;;;;;;17.13;9.67;;;2.80;99.90;;;;;;5014630;28;20220;-93
2021/01/03 04:18:50;;;;;;;18.83;10.43;;;2.80;99.90;;;;;;5031189;28;20188;-93
2021/01/03 04:21:16;;;;;;;19.77;10.90;;;2.80;99.90;;;;;;5015036;28;20239;-92
2021/01/03 04:23:42;;;;;;;17.63;10.63;;;2.80;99.90;;;;;;5014729;28;20223;-93
2021/01/03 04:26:14;;;;;;;20.53;10.43;;;2.80;99.90;;;;;;5014472;28;20164;-93
2021/01/03 04:28:40;;;;;;;20.63;10.97;;;2.80;99.90;;;;;;5014540;28;20225;-93
2021/01/03 04:31:05;;;;;;;21.03;12.27;;;2.80;99.90;;;;;;5014289;28;20171;-94
2021/01/03 04:33:31;;;;;;;21.00;11.40;;;2.80;99.90;;;;;;5014499;28;20195;-93
2021/01/03 04:35:57;;;;;;;20.97;11.60;;;2.80;99.90;;;;;;5014317;28;20167;-92
2021/01/03 04:38:22;;;;;;;22.47;11.80;;;2.80;99.90;;;;;;5014435;28;20172;-93
2021/01/03 04:40:54;;;;;;;18.00;11.10;;;2.80;99.90;;;;;;5014273;28;20179;-92
2021/01/03 04:43:21;;;;;;;21.63;11.17;;;2.80;99.90;;;;;;5014019;28;20219;-93
2021/01/03 04:45:51;;;;;;;21.03;12.23;;;2.80;99.90;;;;;;5014124;28;20192;-92
2021/01/03 04:48:27;;;;;;;21.13;11.90;;;2.80;99.90;;;;;;5014200;28;20177;-93
2021/01/03 04:51:06;;;;;;;21.87;11.73;;;2.70;99.90;;;;;;5014109;28;20251;-92
2021/01/03 04:53:35;;;;;;;21.90;11.17;;;2.80;99.90;;;;;;5013908;28;20686;-92
2021/01/03 04:56:13;;;;;;;18.40;11.17;;;2.80;99.90;;;;;;5014011;28;20175;-94
2021/01/03 04:59:06;;;;;;;17.70;10.43;;;2.80;99.90;;;;;;5014381;28;20183;-93
2021/01/03 05:01:38;;;;;;;18.13;10.23;;;2.80;99.90;;;;;;5014135;28;20175;-93
2021/01/03 05:04:43;;;;;;;20.13;10.93;;;2.80;99.90;;;;;;5013852;28;20210;-92
2021/01/03 05:07:14;;;;;;;17.27;10.87;;;2.90;99.90;;;;;;5013797;28;20167;-94
2021/01/03 05:09:40;;;;;;;18.80;10.70;;;2.80;99.90;;;;;;5013987;28;20179;-93
2021/01/03 05:12:15;;;;;;;20.33;11.13;;;2.80;99.90;;;;;;5013829;28;20217;-93
2021/01/03 05:15:00;;;;;;;20.13;10.90;;;2.80;99.90;;;;;;5013369;28;20194;-94
2021/01/03 05:17:29;;;;;;;17.83;10.77;;;2.70;99.90;;;;;;4997387;28;20179;-93
2021/01/03 05:19:54;;;;;;;18.60;10.97;;;2.80;99.90;;;;;;4997330;28;20687;-92
2021/01/03 05:22:32;;;;;;;16.70;10.30;;;2.70;99.90;;;;;;4997178;28;20280;-94
2021/01/03 05:25:00;;;;;;;17.50;10.73;;;2.70;99.90;;;;;;4997213;28;20269;-92
2021/01/03 05:27:28;;;;;;;18.03;10.23;;;2.70;99.90;;;;;;4997179;28;20596;-94
2021/01/03 05:30:13;;;;;;;17.17;10.47;;;2.70;99.90;;;;;;4997156;28;20648;-93
2021/01/03 05:32:38;;;;;;;18.90;9.70;;;2.70;99.90;;;;;;4997144;28;20181;-95
2021/01/03 05:35:21;;;;;;;17.53;9.77;;;2.70;99.90;;;;;;4997248;28;20266;-92
2021/01/03 05:37:49;;;;;;;17.67;10.20;;;2.70;99.90;;;;;;4996941;28;20175;-93
2021/01/03 05:40:28;;;;;;;18.90;10.17;;;2.70;99.90;;;;;;4997164;28;20194;-92
2021/01/03 05:43:09;;;;;;;19.37;10.37;;;2.70;99.90;;;;;;4996999;28;20221;-93
2021/01/03 05:45:42;;;;;;;17.50;10.13;;;2.70;99.90;;;;;;4997239;28;20170;-92
2021/01/03 05:48:21;;;;;;;16.90;10.23;;;2.70;99.90;;;;;;4997123;28;20179;-93
2021/01/03 05:50:46;;;;;;;21.30;11.50;;;2.70;99.90;;;;;;4996921;28;20175;-92
2021/01/03 05:53:25;;;;;;;24.43;11.03;;;2.70;99.90;;;;;;4997268;28;20252;-93
2021/01/03 05:55:57;;;;;;;20.83;11.77;;;2.60;99.90;;;;;;4997010;28;20186;-93
2021/01/03 05:58:44;;;;;;;19.00;10.73;;;2.60;99.90;;;;;;4996721;28;20539;-93
2021/01/03 06:01:23;;;;;;;21.73;11.47;;;2.60;99.90;;;;;;4996808;28;20277;-91
2021/01/03 06:04:09;;;;;;;22.47;11.47;;;2.60;99.90;;;;;;4996804;28;20301;-92
2021/01/03 06:07:00;;;;;;;20.17;10.50;;;2.70;99.90;;;;;;4996749;28;20270;-92
2021/01/03 06:09:37;;;;;;;19.77;11.10;;;2.70;99.90;;;;;;4969244;28;20223;-93
2021/01/03 06:12:17;;;;;;;19.70;10.93;;;2.70;99.90;;;;;;4996892;28;20254;-93
2021/01/03 06:14:45;;;;;;;21.70;11.73;;;2.70;99.90;;;;;;4996682;28;20229;-92
2021/01/03 06:17:13;;;;;;;16.40;10.20;;;2.60;99.90;;;;;;4996561;28;20180;-92
2021/01/03 06:19:48;;;;;;;18.57;10.43;;;2.70;99.90;;;;;;4996811;28;20553;-93
2021/01/03 06:22:33;;;;;;;20.17;11.23;;;2.70;99.90;;;;;;4996759;28;20178;-93
2021/01/03 06:25:02;;;;;;;18.13;10.73;;;2.70;99.90;;;;;;4996878;28;20168;-93
2021/01/03 06:27:31;;;;;;;17.73;10.53;;;2.70;99.90;;;;;;4996790;28;20260;-92
2021/01/03 06:30:00;;;;;;;19.57;10.67;;;2.70;99.90;;;;;;4996801;28;20545;-92
2021/01/03 06:32:49;;;;;;;17.90;10.37;;;2.70;99.90;;;;;;4996719;28;20218;-93
2021/01/03 06:35:33;;;;;;;19.77;10.57;;;2.70;99.90;;;;;;4996554;28;20179;-92
2021/01/03 06:38:05;;;;;;;17.73;10.67;;;2.80;99.90;;;;;;4999636;28;20178;-93
2021/01/03 06:40:37;;;;;;;16.50;10.20;;;2.70;99.90;;;;;;5000508;28;20171;-91
2021/01/03 06:43:41;;;;;;;18.90;10.77;;;2.70;99.90;;;;;;5000026;28;20218;-93
2021/01/03 06:46:31;;;;;;;22.10;10.77;;;2.70;99.90;;;;;;5000026;28;20258;-93
2021/01/03 06:49:16;;;;;;;17.53;10.00;;;2.70;99.90;;;;;;4999853;28;20605;-92
2021/01/03 06:52:03;;;;;;;18.20;10.23;;;2.70;99.90;;;;;;5000118;28;20179;-92
2021/01/03 06:54:53;;;;;;;17.70;10.33;;;2.70;99.90;;;;;;5000202;28;20664;-93
2021/01/03 06:57:37;;;;;;;19.37;10.97;;;2.70;99.90;;;;;;5000105;28;20178;-92
2021/01/03 07:00:16;;;;;;;20.67;11.13;;;2.70;99.90;;;;;;5000033;28;20175;-93
2021/01/03 07:02:48;;;;;;;18.97;11.13;;;2.80;99.90;;;;;;4999711;28;20214;-93
2021/01/03 07:05:15;;;;;;;22.07;11.23;;;2.70;99.90;;;;;;4999749;28;20174;-93
2021/01/03 07:08:02;;;;;;;16.97;10.57;;;2.80;99.90;;;;;;4999857;28;20230;-93
2021/01/03 07:10:45;;;;;;;20.73;11.53;;;2.80;99.90;;;;;;4999646;28;20207;-94
2021/01/03 07:13:29;;;;;;;20.07;11.57;;;2.70;99.90;;;;;;4999905;28;20539;-92
2021/01/03 07:15:58;;;;;;;20.07;11.00;;;2.70;99.90;;;;;;5007767;28;20645;-92
2021/01/03 07:18:42;;;;;;;19.97;11.30;;;2.80;99.90;;;;;;5015881;28;20182;-93
2021/01/03 07:21:14;;;;;;;20.80;11.93;;;2.70;99.90;;;;;;5015832;28;20176;-93
2021/01/03 07:23:47;;;;;;;20.23;11.60;;;2.70;99.90;;;;;;5015650;28;20215;-93
2021/01/03 07:26:19;;;;;;;22.30;12.73;;;2.80;99.90;;;;;;5015836;28;20198;-93
2021/01/03 07:28:56;;;;;;;21.73;11.40;;;2.80;99.90;;;;;;5015744;28;20286;-92
2021/01/03 07:31:27;;;;;;;25.17;12.90;;;2.70;99.90;;;;;;5015392;28;20225;-93
2021/01/03 07:34:17;;;;;;;27.13;14.27;;;2.70;99.90;;;;;;5015523;28;20208;-92
2021/01/03 07:36:52;;;;;;;24.23;13.37;;;2.80;99.90;;;;;;5015439;28;20233;-92
2021/01/03 07:39:27;;;;;;;26.57;13.23;;;2.70;99.90;;;;;;5015566;28;20182;-93
2021/01/03 07:42:16;;;;;;;26.33;13.70;;;2.70;99.90;;;;;;5015585;28;20178;-93
2021/01/03 07:44:42;;;;;;;27.70;14.47;;;2.70;99.90;;;;;;5015324;28;20213;-93
2021/01/03 07:47:08;;;;;;;31.10;15.13;;;2.70;99.90;;;;;;5015590;28;20169;-93
2021/01/03 07:49:46;;;;;;;28.40;14.90;;;2.60;99.90;;;;;;5015698;28;20178;-93
2021/01/03 07:52:18;;;;;;;30.57;14.93;;;2.60;99.90;;;;;;5015229;28;20313;-93
2021/01/03 07:54:52;;;;;;;34.33;15.93;;;2.60;99.90;;;;;;5015430;28;20195;-94
2021/01/03 07:57:20;;;;;;;39.37;17.20;;;2.60;99.90;;;;;;5015459;28;20170;-92
2021/01/03 07:59:48;;;;;;;36.70;16.37;;;2.60;99.90;;;;;;5015594;28;20182;-93
2021/01/03 08:02:16;;;;;;;39.50;16.33;;;2.60;99.90;;;;;;5015301;28;20194;-93
2021/01/03 08:04:42;;;;;;;38.33;16.97;;;2.60;99.90;;;;;;5014945;28;20203;-93
2021/01/03 08:07:17;;;;;;;37.77;17.07;;;2.60;99.90;;;;;;5014959;28;20175;-94
2021/01/03 08:09:43;;;;;;;35.13;16.57;;;2.70;99.90;;;;;;5015235;28;20167;-92
2021/01/03 08:12:08;;;;;;;39.37;17.90;;;2.60;99.90;;;;;;5015039;28;20181;-93
2021/01/03 08:14:40;;;;;;;38.47;17.20;;;2.70;99.90;;;;;;5014728;28;20203;-93
2021/01/03 08:17:06;;;;;;;42.57;18.73;;;2.70;99.90;;;;;;4998764;28;20180;-93
2021/01/03 08:19:32;;;;;;;45.10;19.57;;;2.70;99.90;;;;;;4998925;28;20179;-93
2021/01/03 08:22:01;;;;;;;38.73;17.90;;;2.70;99.90;;;;;;4998857;28;20536;-93
2021/01/03 08:24:29;;;;;;;44.40;18.53;;;2.70;99.90;;;;;;4998386;28;20218;-93
2021/01/03 08:27:14;;;;;;;41.57;18.37;;;2.70;99.90;;;;;;4998896;28;20206;-93
2021/01/03 08:29:45;;;;;;;41.13;17.33;;;2.70;99.90;;;;;;4998519;28;20179;-93
2021/01/03 08:32:32;;;;;;;37.50;17.67;;;2.70;99.90;;;;;;4998955;28;20176;-92
2021/01/03 08:35:00;;;;;;;39.80;17.67;;;2.70;99.90;;;;;;4999115;28;20709;-92
2021/01/03 08:37:34;;;;;;;38.10;16.70;;;2.70;99.90;;;;;;4999273;28;20179;-94
2021/01/03 08:40:30;;;;;;;39.57;17.13;;;2.70;99.90;;;;;;4999033;28;20172;-93
2021/01/03 08:43:19;;;;;;;37.50;17.17;;;2.70;99.90;;;;;;4998368;28;20223;-92
2021/01/03 08:45:49;;;;;;;38.13;16.93;;;2.70;99.90;;;;;;4998512;28;20175;-94
2021/01/03 08:48:23;;;;;;;32.30;15.70;;;2.70;99.90;;;;;;4982219;28;20217;-93
2021/01/03 08:50:49;;;;;;;34.87;15.93;;;2.80;99.90;;;;;;4998540;28;20241;-93
2021/01/03 08:53:24;;;;;;;39.73;16.73;;;2.80;99.90;;;;;;4998440;28;20227;-93
2021/01/03 08:56:00;;;;;;;38.30;17.37;;;2.70;99.90;;;;;;4997807;28;20203;-93
2021/01/03 08:58:35;;;;;;;33.17;16.40;;;2.80;99.90;;;;;;4997819;28;20182;-95
2021/01/03 09:01:03;;;;;;;32.40;15.17;;;2.80;99.90;;;;;;4997674;28;20217;-93
2021/01/03 09:03:32;;;;;;;34.97;16.43;;;2.70;99.90;;;;;;4997599;28;20215;-93
2021/01/03 09:06:00;;;;;;;32.23;15.90;;;2.70;99.90;;;;;;4997541;28;20202;-94
2021/01/03 09:08:33;;;;;;;32.97;16.00;;;2.70;99.90;;;;;;4997734;28;20202;-93
2021/01/03 09:11:11;;;;;;;28.23;15.17;;;2.70;99.90;;;;;;4997533;28;20175;-93
2021/01/03 09:13:45;;;;;;;32.60;15.03;;;2.70;99.90;;;;;;4998232;28;20299;-92
2021/01/03 09:16:34;;;;;;;33.10;14.93;;;2.70;99.90;;;;;;5007359;28;20276;-93
2021/01/03 09:19:14;;;;;;;35.77;15.57;;;2.70;99.90;;;;;;5013856;28;20575;-92
2021/01/03 09:21:53;;;;;;;27.57;14.60;;;2.70;99.90;;;;;;5015147;28;20305;-95
2021/01/03 09:24:27;;;;;;;32.97;15.73;;;2.60;99.90;;;;;;5014145;28;20269;-93
2021/01/03 09:26:54;;;;;;;24.13;13.37;;;2.60;99.90;;;;;;5014701;28;20172;-93
2021/01/03 09:29:27;;;;;;;31.03;14.97;;;2.60;99.90;;;;;;5014239;28;20207;-94
2021/01/03 09:32:15;;;;;;;28.23;14.43;;;2.70;99.90;;;;;;5014205;28;20199;-90
2021/01/03 09:35:24;;;;;;;29.63;15.07;;;2.60;99.90;;;;;;5013899;28;20206;-95
2021/01/03 09:38:07;;;;;;;26.50;13.20;;;2.50;99.90;;;;;;5004654;28;20198;-93
2021/01/03 09:40:37;;;;;;;27.33;13.87;;;2.60;99.90;;;;;;5023478;28;20175;-93
2021/01/03 09:43:25;;;;;;;26.77;13.20;;;2.60;99.90;;;;;;5021157;28;20674;-92
2021/01/03 09:46:18;;;;;;;27.33;13.40;;;2.50;99.90;;;;;;5014597;28;20176;-93
2021/01/03 09:48:46;;;;;;;24.00;11.20;;;2.50;99.90;;;;;;5015389;28;20262;-92
2021/01/03 09:51:49;;;;;;;29.40;13.57;;;2.50;99.90;;;;;;5014970;28;20167;-93
2021/01/03 09:54:20;;;;;;;23.17;11.83;;;2.50;99.90;;;;;;5014215;28;20202;-92
2021/01/03 09:56:51;;;;;;;29.40;15.20;;;2.50;99.90;;;;;;5014333;28;20226;-91
2021/01/03 09:59:20;;;;;;;28.30;14.43;;;2.50;99.90;;;;;;5016407;28;20171;-94
2021/01/03 10:01:48;;;;;;;33.40;15.30;;;2.50;99.90;;;;;;5016501;28;20241;-94
2021/01/03 10:04:22;;;;;;;26.70;12.73;;;2.40;99.90;;;;;;5016082;28;20261;-93
2021/01/03 10:07:10;;;;;;;28.23;13.20;;;2.30;99.90;;;;;;5015470;28;20172;-93
2021/01/03 10:09:36;;;;;;;31.40;13.00;;;2.40;99.90;;;;;;5016197;28;20171;-95
2021/01/03 10:12:32;;;;;;;27.10;13.20;;;2.30;99.90;;;;;;5017646;28;20182;-94
2021/01/03 10:15:09;;;;;;;26.27;12.43;;;2.40;99.90;;;;;;5019559;28;20637;-94
2021/01/03 10:17:37;;;;;;;24.77;12.20;;;2.50;99.90;;;;;;5004702;28;20190;-95
2021/01/03 10:20:28;;;;;;;23.73;11.57;;;2.50;99.90;;;;;;5004218;28;20258;-93
2021/01/03 10:22:54;;;;;;;34.87;18.33;;;2.50;99.90;;;;;;5001980;28;20229;-92
2021/01/03 10:25:20;;;;;;;24.17;11.77;;;2.60;99.90;;;;;;5002586;28;20687;-94
2021/01/03 10:28:03;;;;;;;23.13;12.00;;;2.60;99.90;;;;;;5002413;28;20217;-93
2021/01/03 10:30:29;;;;;;;25.17;11.53;;;2.50;99.90;;;;;;4999847;28;20191;-93
2021/01/03 10:32:55;;;;;;;20.60;10.80;;;2.60;99.90;;;;;;5000244;28;20199;-95
2021/01/03 10:35:21;;;;;;;25.03;12.07;;;2.60;99.90;;;;;;4982921;28;20195;-93
2021/01/03 10:37:46;;;;;;;27.77;12.60;;;2.50;99.90;;;;;;4989322;28;20222;-92
2021/01/03 10:40:13;;;;;;;21.87;11.23;;;2.50;99.90;;;;;;4990593;28;20194;-95
2021/01/03 10:42:42;;;;;;;21.90;11.37;;;2.40;99.90;;;;;;4981649;28;20180;-94
2021/01/03 10:45:08;;;;;;;25.43;11.57;;;2.50;99.90;;;;;;4981635;28;20164;-93
2021/01/03 10:47:34;;;;;;;24.03;11.43;;;2.40;99.90;;;;;;4981840;28;20159;-95
2021/01/03 10:49:59;;;;;;;23.53;11.13;;;2.50;99.90;;;;;;4982226;28;20659;-92
2021/01/03 10:52:26;;;;;;;21.53;11.57;;;2.50;99.90;;;;;;4981451;28;20161;-94
2021/01/03 10:54:52;;;;;;;19.57;10.27;;;2.50;99.90;;;;;;4999478;28;20270;-93
2021/01/03 10:57:18;;;;;;;22.13;11.20;;;2.60;99.90;;;;;;5001175;28;20198;-94
2021/01/03 10:59:43;;;;;;;22.40;11.53;;;2.60;99.90;;;;;;5001339;28;20167;-94
2021/01/03 11:02:10;;;;;;;19.53;10.87;;;2.50;99.90;;;;;;5000865;28;20168;-93
2021/01/03 11:04:36;;;;;;;22.80;11.37;;;2.50;99.90;;;;;;5000605;28;20203;-93
2021/01/03 11:07:01;;;;;;;19.00;9.93;;;2.40;99.90;;;;;;5000028;28;20175;-91
2021/01/03 11:09:34;;;;;;;20.17;10.30;;;2.40;99.90;;;;;;4998680;28;20171;-92
2021/01/03 11:12:06;;;;;;;21.27;10.60;;;2.40;99.90;;;;;;4981516;28;20176;-93
2021/01/03 11:14:32;;;;;;;19.80;11.20;;;2.40;99.90;;;;;;4982143;28;20668;-93
2021/01/03 11:16:58;;;;;;;17.03;9.50;;;2.50;99.90;;;;;;4997858;28;20236;-93
2021/01/03 11:19:24;;;;;;;19.90;10.80;;;2.40;99.90;;;;;;5009913;28;20276;-92
2021/01/03 11:21:58;;;;;;;20.87;10.83;;;2.40;99.90;;;;;;5005027;28;20345;-94
2021/01/03 11:24:25;;;;;;;20.63;11.07;;;2.40;99.90;;;;;;5024203;28;20211;-92
2021/01/03 11:26:52;;;;;;;17.70;9.43;;;2.40;99.90;;;;;;5023619;28;20177;-94
2021/01/03 11:29:20;;;;;;;19.30;10.00;;;2.50;99.90;;;;;;5020432;28;20171;-92
2021/01/03 11:31:49;;;;;;;19.13;10.40;;;2.50;99.90;;;;;;5019044;28;20175;-93
2021/01/03 11:34:20;;;;;;;18.70;10.70;;;2.40;99.90;;;;;;4996950;28;20610;-94
2021/01/03 11:36:51;;;;;;;19.20;10.60;;;2.40;99.90;;;;;;4997099;28;20186;-92
2021/01/03 11:39:18;;;;;;;17.80;9.53;;;2.40;99.90;;;;;;4997407;28;20267;-93
2021/01/03 11:41:47;;;;;;;18.83;10.20;;;2.40;99.90;;;;;;5013599;28;20190;-92
2021/01/03 11:44:14;;;;;;;19.37;10.40;;;2.40;99.90;;;;;;5017432;28;20218;-91
2021/01/03 11:46:40;;;;;;;19.13;10.30;;;2.40;99.90;;;;;;5002272;28;20183;-93
2021/01/03 11:49:06;;;;;;;18.83;9.83;;;2.30;99.90;;;;;;5016444;28;20327;-93
2021/01/03 11:51:32;;;;;;;16.23;9.53;;;2.30;99.90;;;;;;5015526;28;20222;-92
2021/01/03 11:53:58;;;;;;;22.00;11.33;;;2.20;99.90;;;;;;5002903;28;20686;-93
2021/01/03 11:56:24;;;;;;;17.90;9.70;;;2.20;99.90;;;;;;5015173;28;20269;-92
2021/01/03 11:58:51;;;;;;;16.33;9.63;;;2.20;99.90;;;;;;5015586;28;20179;-93
2021/01/03 12:01:19;;;;;;;18.87;9.80;;;2.20;99.90;;;;;;5016416;28;20183;-92
2021/01/03 12:03:46;;;;;;;15.60;9.33;;;2.10;99.90;;;;;;5019277;28;20575;-92
2021/01/03 12:06:15;;;;;;;17.37;10.20;;;2.20;99.90;;;;;;5018191;28;20228;-94
2021/01/03 12:08:45;;;;;;;19.37;10.17;;;2.20;99.90;;;;;;4996096;28;20168;-92
2021/01/03 12:11:32;;;;;;;18.63;10.70;;;2.20;99.90;;;;;;4996725;28;20179;-93
2021/01/03 12:14:01;;;;;;;20.17;10.10;;;2.20;99.90;;;;;;5015021;28;20203;-93
2021/01/03 12:16:31;;;;;;;18.27;10.93;;;2.10;99.90;;;;;;5014736;28;20281;-94
2021/01/03 12:18:57;;;;;;;17.27;10.00;;;2.10;99.90;;;;;;4997949;28;20200;-93
2021/01/03 12:21:26;;;;;;;18.97;10.47;;;2.00;99.90;;;;;;5005587;28;20183;-93
2021/01/03 12:23:52;;;;;;;16.73;9.93;;;2.00;99.90;;;;;;5009861;28;20203;-92
2021/01/03 12:26:19;;;;;;;18.07;10.10;;;2.00;99.90;;;;;;4996010;28;20688;-92
2021/01/03 12:28:45;;;;;;;18.73;10.70;;;1.90;99.90;;;;;;4995686;28;20179;-92
2021/01/03 12:31:12;;;;;;;17.00;10.30;;;1.90;99.90;;;;;;4995303;28;20179;-93
2021/01/03 12:34:06;;;;;;;16.77;10.63;;;1.90;99.90;;;;;;4995323;28;20213;-93
2021/01/03 12:36:36;;;;;;;17.40;10.57;;;2.00;99.90;;;;;;4995453;28;20183;-93
2021/01/03 12:39:15;;;;;;;20.03;11.23;;;1.90;99.90;;;;;;5001636;28;20183;-92
2021/01/03 12:41:50;;;;;;;19.00;10.63;;;2.00;99.90;;;;;;5007046;28;20225;-94
2021/01/03 12:44:20;;;;;;;20.70;10.90;;;2.00;99.90;;;;;;4995268;28;20698;-93
2021/01/03 12:46:59;;;;;;;19.60;10.37;;;2.00;99.90;;;;;;5000663;28;20213;-93
2021/01/03 12:49:34;;;;;;;20.53;10.10;;;2.10;99.90;;;;;;5001184;28;20179;-93
2021/01/03 12:52:04;;;;;;;21.10;10.83;;;2.10;99.90;;;;;;4997231;28;20520;-94
2021/01/03 12:54:32;;;;;;;16.77;9.90;;;2.00;99.90;;;;;;4998469;28;20294;-91
2021/01/03 12:57:09;;;;;;;16.27;9.57;;;2.00;99.90;;;;;;5000883;28;20249;-92
2021/01/03 12:59:35;;;;;;;29.37;17.70;;;2.00;99.90;;;;;;4996396;28;20194;-92
2021/01/03 13:02:01;;;;;;;16.73;9.90;;;2.00;99.90;;;;;;4995434;28;20656;-92
2021/01/03 13:04:33;;;;;;;19.03;10.27;;;2.00;99.90;;;;;;4994411;28;20214;-93
2021/01/03 13:07:18;;;;;;;18.00;10.10;;;2.00;99.90;;;;;;5014451;28;20166;-92
2021/01/03 13:09:44;;;;;;;14.90;9.10;;;1.90;99.90;;;;;;5003283;28;20184;-93
2021/01/03 13:12:23;;;;;;;16.03;9.33;;;2.00;99.90;;;;;;4998338;28;20199;-92